Kingston, UT (84743)

10:11 PM MDT on August 22, 2014 (GMT -0600)
Bengal Ranch | Change Station
CLOSE
Current Station
Personal Weather Station
Location: Circleville, UT
Elevation: 6102 ft
Nearby Weather Stations

Elev 6102 ft 38.16 °N, 112.28 °W | Updated 47 seconds ago

Clear
Clear
64.9 °F
Feels Like 64.9 °F
N
7.3
Wind Variable Wind from SW

Today
High -- | Low -- °F
--% Chance of Precip.
Yesterday
High -- | Low -- °F
Precip. -- in
6:49 AM 8:12 PM
Waning Crescent, 5% visible
Pressure 29.86 in
Visibility 10.0 miles
Clouds Clear
Dew Point 44 °F
Humidity 47%
Rainfall 0.00 in
Snow Depth 0 in
UV 0 out of 12
Pollen 6.90 out of 12
Air Quality Not available.
Flu Activity Not available.
METAR KBCE 230353Z AUTO 18005KT 10SM CLR 13/07 A3018 RMK AO2 SLP112 T01330072

More Conditions Fewer Conditions

Pressure 29.86 in
Visibility 10.0 miles
Clouds Clear
Dew Point 44 °F
Humidity 47%
Rainfall 0.00 in
Snow Depth 0 in
UV 0 out of 12
Pollen 6.90 out of 12
Air Quality Not available.
Flu Activity Not available.
METAR KBCE 230353Z AUTO 18005KT 10SM CLR 13/07 A3018 RMK AO2 SLP112 T01330072

More Conditions Fewer Conditions

10-Day Weather Forecast

Almanac

Astronomy

Aug. 22, 2014 Rise Set
Actual Time 6:49 AM MDT 8:12 PM MDT
Civil Twilight 6:22 AM MDT 8:40 PM MDT
Nautical Twilight 5:48 AM MDT 9:13 PM MDT
Astronomical Twilight 5:14 AM MDT 9:48 PM MDT
Moon 4:16 AM MDT (8/22) 6:22 PM MDT (8/22)
Length of Visible Light 14h 18m
Length of Day
13h 23m
Tomorrow will be 2m 17s shorter.
Waning Crescent, 5% of the Moon is Illuminated
Aug 23
Waning Crescent
Aug 25
New
Sep 2
First Quarter
Sep 8
Full
Sep 15
Last Quarter

Today's Extremes

State Highs State Lows

Community

WunderPhotos

Upload Photos

1,746,358 photos uploaded!

WunderBlogs® & News

Nearby

Snow Depth

Station Depth Elevation
Merchant Valley 0 in 8750 ft
Box Creek 0 in 9800 ft
Clayton Springs 0 in 10000 ft
Black Flat-U.M. Creek 0 in 9400 ft
Agua Canyon 3 in 8900 ft

Earthquake Activity

City Distance Mag. Time & Date
No recent earthquake activity has been reported nearby.
Minimum magnitude displayed is 2.5.

Coastal Water Temperatures

Place Temperature
No Stations Reporting

Nearby Weather Stations